sensor_id;sensor_type;location;lat;lon;timestamp;P1;durP1;ratioP1;P2;durP2;ratioP2
12908;SDS011;6522;49.622;6.126;2022-08-03T00:01:21;10.53;;;9.93;;
12908;SDS011;6522;49.622;6.126;2022-08-03T00:04:08;9.00;;;8.40;;
12908;SDS011;6522;49.622;6.126;2022-08-03T00:06:55;9.30;;;8.50;;
12908;SDS011;6522;49.622;6.126;2022-08-03T00:09:42;11.30;;;10.37;;
12908;SDS011;6522;49.622;6.126;2022-08-03T00:12:28;8.80;;;8.00;;
12908;SDS011;6522;49.622;6.126;2022-08-03T00:15:15;8.63;;;8.00;;
12908;SDS011;6522;49.622;6.126;2022-08-03T00:18:01;8.60;;;8.00;;
12908;SDS011;6522;49.622;6.126;2022-08-03T00:20:48;10.80;;;10.10;;
12908;SDS011;6522;49.622;6.126;2022-08-03T00:23:35;8.98;;;8.07;;
12908;SDS011;6522;49.622;6.126;2022-08-03T00:26:21;8.45;;;7.60;;
12908;SDS011;6522;49.622;6.126;2022-08-03T00:29:08;10.43;;;9.73;;
12908;SDS011;6522;49.622;6.126;2022-08-03T00:31:54;8.18;;;7.50;;
12908;SDS011;6522;49.622;6.126;2022-08-03T00:34:41;8.20;;;7.50;;
12908;SDS011;6522;49.622;6.126;2022-08-03T00:37:28;8.32;;;7.70;;
12908;SDS011;6522;49.622;6.126;2022-08-03T00:40:15;8.98;;;8.27;;
12908;SDS011;6522;49.622;6.126;2022-08-03T00:43:03;10.70;;;10.00;;
12908;SDS011;6522;49.622;6.126;2022-08-03T00:45:48;8.20;;;7.50;;
12908;SDS011;6522;49.622;6.126;2022-08-03T00:48:35;8.90;;;8.20;;
12908;SDS011;6522;49.622;6.126;2022-08-03T00:51:21;9.30;;;8.70;;
12908;SDS011;6522;49.622;6.126;2022-08-03T00:54:08;8.02;;;7.43;;
12908;SDS011;6522;49.622;6.126;2022-08-03T00:56:55;8.50;;;7.80;;
12908;SDS011;6522;49.622;6.126;2022-08-03T00:59:42;10.07;;;9.37;;
12908;SDS011;6522;49.622;6.126;2022-08-03T01:02:29;8.27;;;7.57;;
12908;SDS011;6522;49.622;6.126;2022-08-03T01:05:16;8.00;;;7.30;;
12908;SDS011;6522;49.622;6.126;2022-08-03T01:08:07;10.30;;;9.40;;
12908;SDS011;6522;49.622;6.126;2022-08-03T01:11:05;7.45;;;6.90;;
12908;SDS011;6522;49.622;6.126;2022-08-03T01:17:09;9.97;;;9.27;;
12908;SDS011;6522;49.622;6.126;2022-08-03T01:19:59;7.72;;;7.03;;
12908;SDS011;6522;49.622;6.126;2022-08-03T01:22:59;8.20;;;7.50;;
12908;SDS011;6522;49.622;6.126;2022-08-03T01:31:20;8.27;;;7.47;;
12908;SDS011;6522;49.622;6.126;2022-08-03T01:34:05;9.80;;;9.10;;
12908;SDS011;6522;49.622;6.126;2022-08-03T01:36:52;7.70;;;7.00;;
12908;SDS011;6522;49.622;6.126;2022-08-03T01:39:39;8.10;;;7.40;;
12908;SDS011;6522;49.622;6.126;2022-08-03T01:42:25;9.13;;;8.43;;
12908;SDS011;6522;49.622;6.126;2022-08-03T01:45:13;7.50;;;6.80;;
12908;SDS011;6522;49.622;6.126;2022-08-03T01:47:59;7.55;;;6.85;;
12908;SDS011;6522;49.622;6.126;2022-08-03T01:50:46;8.70;;;8.00;;
12908;SDS011;6522;49.622;6.126;2022-08-03T01:53:32;7.57;;;6.87;;
12908;SDS011;6522;49.622;6.126;2022-08-03T01:56:19;7.60;;;6.80;;
12908;SDS011;6522;49.622;6.126;2022-08-03T01:59:06;8.30;;;7.70;;
12908;SDS011;6522;49.622;6.126;2022-08-03T02:01:52;7.97;;;6.60;;
12908;SDS011;6522;49.622;6.126;2022-08-03T02:04:40;7.47;;;6.87;;
12908;SDS011;6522;49.622;6.126;2022-08-03T02:07:25;7.60;;;6.90;;
12908;SDS011;6522;49.622;6.126;2022-08-03T02:10:12;7.72;;;7.03;;
12908;SDS011;6522;49.622;6.126;2022-08-03T02:12:59;8.90;;;8.27;;
12908;SDS011;6522;49.622;6.126;2022-08-03T02:15:46;8.20;;;7.50;;
12908;SDS011;6522;49.622;6.126;2022-08-03T02:18:32;7.65;;;6.90;;
12908;SDS011;6522;49.622;6.126;2022-08-03T02:21:19;10.53;;;8.83;;
12908;SDS011;6522;49.622;6.126;2022-08-03T02:24:05;6.67;;;6.07;;
12908;SDS011;6522;49.622;6.126;2022-08-03T02:26:52;7.60;;;6.80;;
12908;SDS011;6522;49.622;6.126;2022-08-03T02:29:39;8.20;;;7.50;;
12908;SDS011;6522;49.622;6.126;2022-08-03T02:32:29;7.47;;;6.80;;
12908;SDS011;6522;49.622;6.126;2022-08-03T02:35:13;6.93;;;6.32;;
12908;SDS011;6522;49.622;6.126;2022-08-03T02:38:00;7.80;;;7.23;;
12908;SDS011;6522;49.622;6.126;2022-08-03T02:40:46;7.30;;;6.65;;
12908;SDS011;6522;49.622;6.126;2022-08-03T02:43:34;7.50;;;6.80;;
12908;SDS011;6522;49.622;6.126;2022-08-03T02:46:22;12.07;;;11.37;;
12908;SDS011;6522;49.622;6.126;2022-08-03T02:49:07;7.90;;;7.20;;
12908;SDS011;6522;49.622;6.126;2022-08-03T02:51:54;6.78;;;6.07;;
12908;SDS011;6522;49.622;6.126;2022-08-03T02:54:41;7.93;;;7.23;;
12908;SDS011;6522;49.622;6.126;2022-08-03T02:57:29;6.05;;;5.45;;
12908;SDS011;6522;49.622;6.126;2022-08-03T03:00:14;7.90;;;7.23;;
12908;SDS011;6522;49.622;6.126;2022-08-03T03:03:01;6.22;;;5.62;;
12908;SDS011;6522;49.622;6.126;2022-08-03T03:05:48;7.68;;;6.47;;
12908;SDS011;6522;49.622;6.126;2022-08-03T03:08:35;7.17;;;6.43;;
12908;SDS011;6522;49.622;6.126;2022-08-03T03:11:22;7.53;;;6.83;;
12908;SDS011;6522;49.622;6.126;2022-08-03T03:14:09;5.95;;;5.35;;
12908;SDS011;6522;49.622;6.126;2022-08-03T03:16:56;6.50;;;5.90;;
12908;SDS011;6522;49.622;6.126;2022-08-03T03:19:43;7.97;;;7.27;;
12908;SDS011;6522;49.622;6.126;2022-08-03T03:22:30;9.25;;;5.80;;
12908;SDS011;6522;49.622;6.126;2022-08-03T03:25:17;6.50;;;5.90;;
12908;SDS011;6522;49.622;6.126;2022-08-03T03:28:03;7.07;;;6.47;;
12908;SDS011;6522;49.622;6.126;2022-08-03T03:30:50;6.90;;;6.00;;
12908;SDS011;6522;49.622;6.126;2022-08-03T03:33:37;6.40;;;5.80;;
12908;SDS011;6522;49.622;6.126;2022-08-03T03:36:23;7.47;;;6.50;;
12908;SDS011;6522;49.622;6.126;2022-08-03T03:39:10;7.90;;;7.10;;
12908;SDS011;6522;49.622;6.126;2022-08-03T03:41:57;8.80;;;6.45;;
12908;SDS011;6522;49.622;6.126;2022-08-03T03:44:43;7.90;;;7.10;;
12908;SDS011;6522;49.622;6.126;2022-08-03T03:47:30;6.65;;;6.05;;
12908;SDS011;6522;49.622;6.126;2022-08-03T03:50:17;6.90;;;6.30;;
12908;SDS011;6522;49.622;6.126;2022-08-03T03:53:04;7.22;;;6.53;;
12908;SDS011;6522;49.622;6.126;2022-08-03T03:55:51;7.30;;;6.50;;
12908;SDS011;6522;49.622;6.126;2022-08-03T03:58:38;6.53;;;5.93;;
12908;SDS011;6522;49.622;6.126;2022-08-03T04:01:25;6.10;;;5.53;;
12908;SDS011;6522;49.622;6.126;2022-08-03T04:04:12;11.70;;;6.10;;
12908;SDS011;6522;49.622;6.126;2022-08-03T04:07:17;5.90;;;5.30;;
12908;SDS011;6522;49.622;6.126;2022-08-03T04:10:22;5.95;;;5.35;;
12908;SDS011;6522;49.622;6.126;2022-08-03T04:13:32;6.60;;;5.90;;
12908;SDS011;6522;49.622;6.126;2022-08-03T04:16:15;6.60;;;6.03;;
12908;SDS011;6522;49.622;6.126;2022-08-03T04:19:02;8.52;;;5.90;;
12908;SDS011;6522;49.622;6.126;2022-08-03T04:21:49;7.50;;;6.70;;
12908;SDS011;6522;49.622;6.126;2022-08-03T04:24:42;6.60;;;6.00;;
12908;SDS011;6522;49.622;6.126;2022-08-03T04:27:26;6.40;;;5.80;;
12908;SDS011;6522;49.622;6.126;2022-08-03T04:30:12;6.57;;;5.82;;
12908;SDS011;6522;49.622;6.126;2022-08-03T04:32:59;6.85;;;6.07;;
12908;SDS011;6522;49.622;6.126;2022-08-03T04:35:45;8.00;;;6.40;;
12908;SDS011;6522;49.622;6.126;2022-08-03T04:38:35;6.72;;;6.12;;
12908;SDS011;6522;49.622;6.126;2022-08-03T04:41:19;6.78;;;6.18;;
12908;SDS011;6522;49.622;6.126;2022-08-03T04:44:05;6.80;;;6.20;;
12908;SDS011;6522;49.622;6.126;2022-08-03T04:46:52;7.05;;;6.40;;
12908;SDS011;6522;49.622;6.126;2022-08-03T04:49:39;8.02;;;6.20;;
12908;SDS011;6522;49.622;6.126;2022-08-03T04:52:26;7.00;;;6.30;;
12908;SDS011;6522;49.622;6.126;2022-08-03T04:55:24;7.70;;;6.22;;
12908;SDS011;6522;49.622;6.126;2022-08-03T04:58:00;9.35;;;6.68;;
12908;SDS011;6522;49.622;6.126;2022-08-03T05:00:46;9.50;;;6.00;;
12908;SDS011;6522;49.622;6.126;2022-08-03T05:03:33;6.90;;;6.20;;
12908;SDS011;6522;49.622;6.126;2022-08-03T05:06:19;8.02;;;7.18;;
12908;SDS011;6522;49.622;6.126;2022-08-03T05:09:06;6.78;;;5.87;;
12908;SDS011;6522;49.622;6.126;2022-08-03T05:11:53;8.02;;;6.03;;
12908;SDS011;6522;49.622;6.126;2022-08-03T05:14:39;7.62;;;6.20;;
12908;SDS011;6522;49.622;6.126;2022-08-03T05:17:26;7.12;;;6.43;;
12908;SDS011;6522;49.622;6.126;2022-08-03T05:20:12;7.18;;;5.50;;
12908;SDS011;6522;49.622;6.126;2022-08-03T05:23:00;7.65;;;6.20;;
12908;SDS011;6522;49.622;6.126;2022-08-03T05:25:46;6.95;;;6.35;;
12908;SDS011;6522;49.622;6.126;2022-08-03T05:28:33;8.13;;;6.78;;
12908;SDS011;6522;49.622;6.126;2022-08-03T05:31:20;7.40;;;6.70;;
12908;SDS011;6522;49.622;6.126;2022-08-03T05:34:06;7.37;;;6.78;;
12908;SDS011;6522;49.622;6.126;2022-08-03T05:36:53;8.80;;;7.18;;
12908;SDS011;6522;49.622;6.126;2022-08-03T05:39:40;7.60;;;6.80;;
12908;SDS011;6522;49.622;6.126;2022-08-03T05:42:26;7.85;;;7.00;;
12908;SDS011;6522;49.622;6.126;2022-08-03T05:45:13;8.23;;;6.75;;
12908;SDS011;6522;49.622;6.126;2022-08-03T05:48:00;7.80;;;7.10;;
12908;SDS011;6522;49.622;6.126;2022-08-03T05:50:47;7.50;;;6.90;;
12908;SDS011;6522;49.622;6.126;2022-08-03T05:53:34;7.78;;;6.90;;
12908;SDS011;6522;49.622;6.126;2022-08-03T05:56:21;7.47;;;6.70;;
12908;SDS011;6522;49.622;6.126;2022-08-03T05:59:07;8.10;;;7.20;;
12908;SDS011;6522;49.622;6.126;2022-08-03T06:01:54;7.18;;;6.47;;
12908;SDS011;6522;49.622;6.126;2022-08-03T06:04:40;8.37;;;7.60;;
12908;SDS011;6522;49.622;6.126;2022-08-03T06:07:27;8.00;;;7.20;;
12908;SDS011;6522;49.622;6.126;2022-08-03T06:10:14;7.87;;;6.28;;
12908;SDS011;6522;49.622;6.126;2022-08-03T06:13:01;11.30;;;7.27;;
12908;SDS011;6522;49.622;6.126;2022-08-03T06:15:48;7.87;;;7.10;;
12908;SDS011;6522;49.622;6.126;2022-08-03T06:18:34;10.05;;;6.95;;
12908;SDS011;6522;49.622;6.126;2022-08-03T06:21:21;9.17;;;8.30;;
12908;SDS011;6522;49.622;6.126;2022-08-03T06:24:08;9.38;;;7.40;;
12908;SDS011;6522;49.622;6.126;2022-08-03T06:26:55;8.23;;;7.53;;
12908;SDS011;6522;49.622;6.126;2022-08-03T06:29:42;10.77;;;8.20;;
12908;SDS011;6522;49.622;6.126;2022-08-03T06:32:29;8.50;;;7.40;;
12908;SDS011;6522;49.622;6.126;2022-08-03T06:35:16;9.00;;;7.90;;
12908;SDS011;6522;49.622;6.126;2022-08-03T06:38:03;9.57;;;8.87;;
12908;SDS011;6522;49.622;6.126;2022-08-03T06:40:49;9.13;;;8.32;;
12908;SDS011;6522;49.622;6.126;2022-08-03T06:43:36;9.38;;;8.50;;
12908;SDS011;6522;49.622;6.126;2022-08-03T06:46:23;11.90;;;10.90;;
12908;SDS011;6522;49.622;6.126;2022-08-03T06:49:10;10.07;;;9.10;;
12908;SDS011;6522;49.622;6.126;2022-08-03T06:51:57;10.10;;;9.20;;
12908;SDS011;6522;49.622;6.126;2022-08-03T06:54:44;11.83;;;10.83;;
12908;SDS011;6522;49.622;6.126;2022-08-03T06:57:30;10.20;;;9.30;;
12908;SDS011;6522;49.622;6.126;2022-08-03T07:00:17;10.60;;;9.63;;
12908;SDS011;6522;49.622;6.126;2022-08-03T07:03:03;10.07;;;9.07;;
12908;SDS011;6522;49.622;6.126;2022-08-03T07:05:50;9.70;;;9.00;;
12908;SDS011;6522;49.622;6.126;2022-08-03T07:08:37;13.10;;;12.30;;
12908;SDS011;6522;49.622;6.126;2022-08-03T07:11:24;10.00;;;9.30;;
12908;SDS011;6522;49.622;6.126;2022-08-03T07:14:10;12.07;;;11.17;;
12908;SDS011;6522;49.622;6.126;2022-08-03T07:16:57;11.80;;;10.90;;
12908;SDS011;6522;49.622;6.126;2022-08-03T07:19:44;12.97;;;12.17;;
12908;SDS011;6522;49.622;6.126;2022-08-03T07:22:31;12.02;;;11.23;;
12908;SDS011;6522;49.622;6.126;2022-08-03T07:25:18;14.13;;;13.23;;
12908;SDS011;6522;49.622;6.126;2022-08-03T07:28:04;14.47;;;13.60;;
12908;SDS011;6522;49.622;6.126;2022-08-03T07:30:51;14.40;;;13.60;;
12908;SDS011;6522;49.622;6.126;2022-08-03T07:33:38;13.87;;;13.07;;
12908;SDS011;6522;49.622;6.126;2022-08-03T07:36:25;14.70;;;13.73;;
12908;SDS011;6522;49.622;6.126;2022-08-03T07:39:12;15.00;;;14.20;;
12908;SDS011;6522;49.622;6.126;2022-08-03T07:41:59;14.60;;;13.70;;
12908;SDS011;6522;49.622;6.126;2022-08-03T07:44:45;14.37;;;13.47;;
12908;SDS011;6522;49.622;6.126;2022-08-03T07:47:32;13.97;;;13.07;;
12908;SDS011;6522;49.622;6.126;2022-08-03T07:50:19;15.87;;;14.97;;
12908;SDS011;6522;49.622;6.126;2022-08-03T07:53:06;15.47;;;14.57;;
12908;SDS011;6522;49.622;6.126;2022-08-03T07:55:53;13.32;;;12.40;;
12908;SDS011;6522;49.622;6.126;2022-08-03T07:58:39;13.32;;;12.43;;
12908;SDS011;6522;49.622;6.126;2022-08-03T08:01:26;15.00;;;14.10;;
12908;SDS011;6522;49.622;6.126;2022-08-03T08:04:13;17.87;;;16.87;;
12908;SDS011;6522;49.622;6.126;2022-08-03T08:07:00;16.73;;;15.83;;
12908;SDS011;6522;49.622;6.126;2022-08-03T08:09:47;15.20;;;14.20;;
12908;SDS011;6522;49.622;6.126;2022-08-03T08:12:34;16.63;;;15.73;;
12908;SDS011;6522;49.622;6.126;2022-08-03T08:15:21;14.85;;;13.95;;
12908;SDS011;6522;49.622;6.126;2022-08-03T08:18:07;15.13;;;14.30;;
12908;SDS011;6522;49.622;6.126;2022-08-03T08:20:54;17.50;;;16.50;;
12908;SDS011;6522;49.622;6.126;2022-08-03T08:23:41;17.60;;;16.60;;
12908;SDS011;6522;49.622;6.126;2022-08-03T08:26:27;16.03;;;15.23;;
12908;SDS011;6522;49.622;6.126;2022-08-03T08:29:14;16.50;;;15.43;;
12908;SDS011;6522;49.622;6.126;2022-08-03T08:32:01;16.63;;;15.73;;
12908;SDS011;6522;49.622;6.126;2022-08-03T08:34:47;18.23;;;16.97;;
12908;SDS011;6522;49.622;6.126;2022-08-03T08:37:34;17.77;;;16.87;;
12908;SDS011;6522;49.622;6.126;2022-08-03T08:40:21;18.20;;;17.03;;
12908;SDS011;6522;49.622;6.126;2022-08-03T08:43:08;17.50;;;16.60;;
12908;SDS011;6522;49.622;6.126;2022-08-03T08:45:54;18.57;;;17.47;;
12908;SDS011;6522;49.622;6.126;2022-08-03T08:48:41;18.27;;;17.27;;
12908;SDS011;6522;49.622;6.126;2022-08-03T08:51:32;17.20;;;16.00;;
12908;SDS011;6522;49.622;6.126;2022-08-03T08:54:19;17.20;;;16.40;;
12908;SDS011;6522;49.622;6.126;2022-08-03T08:57:05;17.50;;;16.50;;
12908;SDS011;6522;49.622;6.126;2022-08-03T08:59:51;17.40;;;16.50;;
12908;SDS011;6522;49.622;6.126;2022-08-03T09:02:38;17.63;;;16.53;;
12908;SDS011;6522;49.622;6.126;2022-08-03T09:05:25;17.30;;;16.50;;
12908;SDS011;6522;49.622;6.126;2022-08-03T09:08:11;16.30;;;15.40;;
12908;SDS011;6522;49.622;6.126;2022-08-03T09:10:58;18.43;;;17.53;;
12908;SDS011;6522;49.622;6.126;2022-08-03T09:13:45;17.17;;;16.27;;
12908;SDS011;6522;49.622;6.126;2022-08-03T09:16:32;17.30;;;16.30;;
12908;SDS011;6522;49.622;6.126;2022-08-03T09:19:19;17.10;;;16.20;;
12908;SDS011;6522;49.622;6.126;2022-08-03T09:22:07;18.07;;;17.07;;
12908;SDS011;6522;49.622;6.126;2022-08-03T09:24:53;17.50;;;16.37;;
12908;SDS011;6522;49.622;6.126;2022-08-03T09:27:43;15.95;;;15.05;;
12908;SDS011;6522;49.622;6.126;2022-08-03T09:30:29;17.43;;;16.53;;
12908;SDS011;6522;49.622;6.126;2022-08-03T09:33:16;15.10;;;14.30;;
12908;SDS011;6522;49.622;6.126;2022-08-03T09:36:03;17.07;;;16.27;;
12908;SDS011;6522;49.622;6.126;2022-08-03T09:39:10;18.43;;;17.03;;
12908;SDS011;6522;49.622;6.126;2022-08-03T09:41:41;17.73;;;16.90;;
12908;SDS011;6522;49.622;6.126;2022-08-03T09:44:32;18.70;;;17.80;;
12908;SDS011;6522;49.622;6.126;2022-08-03T09:47:15;16.10;;;15.20;;
12908;SDS011;6522;49.622;6.126;2022-08-03T09:50:02;17.60;;;16.80;;
12908;SDS011;6522;49.622;6.126;2022-08-03T09:52:47;18.57;;;17.57;;
12908;SDS011;6522;49.622;6.126;2022-08-03T09:55:34;18.33;;;17.53;;
12908;SDS011;6522;49.622;6.126;2022-08-03T09:58:21;17.40;;;16.60;;
12908;SDS011;6522;49.622;6.126;2022-08-03T10:01:07;17.23;;;16.40;;
12908;SDS011;6522;49.622;6.126;2022-08-03T10:03:58;17.57;;;16.77;;
12908;SDS011;6522;49.622;6.126;2022-08-03T10:06:59;14.52;;;13.75;;
12908;SDS011;6522;49.622;6.126;2022-08-03T10:09:32;16.00;;;15.20;;
12908;SDS011;6522;49.622;6.126;2022-08-03T10:12:18;15.40;;;14.70;;
12908;SDS011;6522;49.622;6.126;2022-08-03T10:15:05;15.63;;;14.83;;
12908;SDS011;6522;49.622;6.126;2022-08-03T10:17:52;15.30;;;14.60;;
12908;SDS011;6522;49.622;6.126;2022-08-03T10:20:44;15.13;;;14.32;;
12908;SDS011;6522;49.622;6.126;2022-08-03T10:23:32;16.43;;;15.63;;
12908;SDS011;6522;49.622;6.126;2022-08-03T10:26:17;17.30;;;16.50;;
12908;SDS011;6522;49.622;6.126;2022-08-03T10:29:04;17.13;;;16.30;;
12908;SDS011;6522;49.622;6.126;2022-08-03T10:31:50;17.50;;;15.97;;
12908;SDS011;6522;49.622;6.126;2022-08-03T10:34:38;17.47;;;16.57;;
12908;SDS011;6522;49.622;6.126;2022-08-03T10:37:23;15.87;;;15.07;;
12908;SDS011;6522;49.622;6.126;2022-08-03T10:40:13;16.20;;;15.40;;
12908;SDS011;6522;49.622;6.126;2022-08-03T10:43:02;16.43;;;15.33;;
12908;SDS011;6522;49.622;6.126;2022-08-03T10:45:48;15.87;;;15.17;;
12908;SDS011;6522;49.622;6.126;2022-08-03T10:48:34;13.90;;;13.10;;
12908;SDS011;6522;49.622;6.126;2022-08-03T10:51:21;13.80;;;13.10;;
12908;SDS011;6522;49.622;6.126;2022-08-03T10:54:35;13.80;;;13.10;;
12908;SDS011;6522;49.622;6.126;2022-08-03T10:56:55;15.57;;;14.77;;
12908;SDS011;6522;49.622;6.126;2022-08-03T11:00:00;13.15;;;12.45;;
12908;SDS011;6522;49.622;6.126;2022-08-03T11:05:52;14.60;;;13.90;;
12908;SDS011;6522;49.622;6.126;2022-08-03T11:08:40;14.97;;;14.27;;
12908;SDS011;6522;49.622;6.126;2022-08-03T11:11:26;14.80;;;14.10;;
12908;SDS011;6522;49.622;6.126;2022-08-03T11:14:17;14.87;;;14.10;;
12908;SDS011;6522;49.622;6.126;2022-08-03T11:17:06;15.60;;;14.50;;
12908;SDS011;6522;49.622;6.126;2022-08-03T11:19:53;15.27;;;14.47;;
12908;SDS011;6522;49.622;6.126;2022-08-03T11:22:49;14.43;;;13.73;;
12908;SDS011;6522;49.622;6.126;2022-08-03T11:25:57;15.07;;;14.37;;
12908;SDS011;6522;49.622;6.126;2022-08-03T11:28:26;16.30;;;15.30;;
12908;SDS011;6522;49.622;6.126;2022-08-03T11:34:08;15.40;;;14.70;;
12908;SDS011;6522;49.622;6.126;2022-08-03T11:40:01;15.30;;;14.60;;
12908;SDS011;6522;49.622;6.126;2022-08-03T11:42:47;15.63;;;14.73;;
12908;SDS011;6522;49.622;6.126;2022-08-03T11:45:34;15.40;;;14.70;;
12908;SDS011;6522;49.622;6.126;2022-08-03T11:48:20;15.57;;;14.87;;
12908;SDS011;6522;49.622;6.126;2022-08-03T11:51:18;15.17;;;14.47;;
12908;SDS011;6522;49.622;6.126;2022-08-03T11:53:54;15.50;;;14.80;;
12908;SDS011;6522;49.622;6.126;2022-08-03T11:56:45;15.60;;;14.80;;
12908;SDS011;6522;49.622;6.126;2022-08-03T11:59:31;16.27;;;15.47;;
12908;SDS011;6522;49.622;6.126;2022-08-03T12:02:17;16.50;;;15.40;;
12908;SDS011;6522;49.622;6.126;2022-08-03T12:05:04;16.20;;;15.40;;
12908;SDS011;6522;49.622;6.126;2022-08-03T12:07:51;16.10;;;15.30;;
12908;SDS011;6522;49.622;6.126;2022-08-03T12:10:38;14.53;;;13.73;;
12908;SDS011;6522;49.622;6.126;2022-08-03T12:13:25;14.33;;;13.63;;
12908;SDS011;6522;49.622;6.126;2022-08-03T12:16:18;14.77;;;13.90;;
12908;SDS011;6522;49.622;6.126;2022-08-03T12:19:05;14.23;;;13.53;;
12908;SDS011;6522;49.622;6.126;2022-08-03T12:21:51;14.53;;;13.83;;
12908;SDS011;6522;49.622;6.126;2022-08-03T12:24:41;15.30;;;14.50;;
12908;SDS011;6522;49.622;6.126;2022-08-03T12:27:28;15.80;;;15.00;;
12908;SDS011;6522;49.622;6.126;2022-08-03T12:30:14;16.53;;;15.63;;
12908;SDS011;6522;49.622;6.126;2022-08-03T12:33:14;15.10;;;14.40;;
12908;SDS011;6522;49.622;6.126;2022-08-03T12:36:04;15.80;;;14.80;;
12908;SDS011;6522;49.622;6.126;2022-08-03T12:38:54;16.13;;;14.77;;
12908;SDS011;6522;49.622;6.126;2022-08-03T12:41:40;15.87;;;14.90;;
12908;SDS011;6522;49.622;6.126;2022-08-03T12:44:34;15.90;;;15.10;;
12908;SDS011;6522;49.622;6.126;2022-08-03T12:47:19;16.90;;;15.80;;
12908;SDS011;6522;49.622;6.126;2022-08-03T12:50:06;14.50;;;13.70;;
12908;SDS011;6522;49.622;6.126;2022-08-03T12:52:53;16.33;;;15.57;;
12908;SDS011;6522;49.622;6.126;2022-08-03T12:55:39;16.13;;;15.33;;
12908;SDS011;6522;49.622;6.126;2022-08-03T12:58:33;16.50;;;15.80;;
12908;SDS011;6522;49.622;6.126;2022-08-03T13:01:19;16.30;;;15.37;;
12908;SDS011;6522;49.622;6.126;2022-08-03T13:04:05;16.37;;;15.57;;
12908;SDS011;6522;49.622;6.126;2022-08-03T13:07:03;16.10;;;15.30;;
12908;SDS011;6522;49.622;6.126;2022-08-03T13:09:46;16.80;;;16.00;;
12908;SDS011;6522;49.622;6.126;2022-08-03T13:12:32;17.27;;;16.47;;
12908;SDS011;6522;49.622;6.126;2022-08-03T13:15:18;17.60;;;16.50;;
12908;SDS011;6522;49.622;6.126;2022-08-03T13:18:05;17.20;;;16.30;;
12908;SDS011;6522;49.622;6.126;2022-08-03T13:20:52;17.67;;;16.77;;
12908;SDS011;6522;49.622;6.126;2022-08-03T13:23:39;17.50;;;16.50;;
12908;SDS011;6522;49.622;6.126;2022-08-03T13:26:26;16.93;;;16.13;;
12908;SDS011;6522;49.622;6.126;2022-08-03T13:29:12;14.05;;;13.35;;
12908;SDS011;6522;49.622;6.126;2022-08-03T13:31:59;15.60;;;14.80;;
12908;SDS011;6522;49.622;6.126;2022-08-03T13:34:46;15.63;;;14.83;;
12908;SDS011;6522;49.622;6.126;2022-08-03T13:37:33;15.90;;;15.00;;
12908;SDS011;6522;49.622;6.126;2022-08-03T13:40:20;17.90;;;17.00;;
12908;SDS011;6522;49.622;6.126;2022-08-03T13:43:06;18.10;;;16.60;;
12908;SDS011;6522;49.622;6.126;2022-08-03T13:45:53;18.00;;;16.80;;
12908;SDS011;6522;49.622;6.126;2022-08-03T13:48:40;17.47;;;16.47;;
12908;SDS011;6522;49.622;6.126;2022-08-03T13:51:27;17.23;;;16.43;;
12908;SDS011;6522;49.622;6.126;2022-08-03T13:54:14;18.33;;;17.43;;
12908;SDS011;6522;49.622;6.126;2022-08-03T13:57:01;17.10;;;16.00;;
12908;SDS011;6522;49.622;6.126;2022-08-03T13:59:47;19.23;;;18.00;;
12908;SDS011;6522;49.622;6.126;2022-08-03T14:02:34;19.00;;;18.03;;
12908;SDS011;6522;49.622;6.126;2022-08-03T14:05:21;18.50;;;17.50;;
12908;SDS011;6522;49.622;6.126;2022-08-03T14:08:07;19.10;;;18.10;;
12908;SDS011;6522;49.622;6.126;2022-08-03T14:10:54;18.43;;;17.53;;
12908;SDS011;6522;49.622;6.126;2022-08-03T14:13:41;18.47;;;17.57;;
12908;SDS011;6522;49.622;6.126;2022-08-03T14:16:28;18.20;;;17.30;;
12908;SDS011;6522;49.622;6.126;2022-08-03T14:19:15;17.63;;;16.73;;
12908;SDS011;6522;49.622;6.126;2022-08-03T14:22:02;15.63;;;14.73;;
12908;SDS011;6522;49.622;6.126;2022-08-03T14:24:49;17.60;;;16.70;;
12908;SDS011;6522;49.622;6.126;2022-08-03T14:27:35;17.43;;;16.53;;
12908;SDS011;6522;49.622;6.126;2022-08-03T14:30:22;17.10;;;16.20;;
12908;SDS011;6522;49.622;6.126;2022-08-03T14:33:09;17.83;;;17.00;;
12908;SDS011;6522;49.622;6.126;2022-08-03T14:35:56;17.40;;;16.50;;
12908;SDS011;6522;49.622;6.126;2022-08-03T14:38:42;17.83;;;16.93;;
12908;SDS011;6522;49.622;6.126;2022-08-03T14:41:29;18.20;;;17.20;;
12908;SDS011;6522;49.622;6.126;2022-08-03T14:44:16;18.60;;;17.60;;
12908;SDS011;6522;49.622;6.126;2022-08-03T14:47:02;17.97;;;17.07;;
12908;SDS011;6522;49.622;6.126;2022-08-03T14:49:49;16.50;;;15.40;;
12908;SDS011;6522;49.622;6.126;2022-08-03T14:52:36;15.90;;;15.10;;
12908;SDS011;6522;49.622;6.126;2022-08-03T14:55:22;18.73;;;17.83;;
12908;SDS011;6522;49.622;6.126;2022-08-03T14:58:09;19.60;;;18.63;;
12908;SDS011;6522;49.622;6.126;2022-08-03T15:00:58;19.03;;;17.93;;
12908;SDS011;6522;49.622;6.126;2022-08-03T15:03:42;18.20;;;17.30;;
12908;SDS011;6522;49.622;6.126;2022-08-03T15:06:29;16.37;;;15.38;;
12908;SDS011;6522;49.622;6.126;2022-08-03T15:09:16;18.50;;;17.40;;
12908;SDS011;6522;49.622;6.126;2022-08-03T15:12:03;18.77;;;17.57;;
12908;SDS011;6522;49.622;6.126;2022-08-03T15:14:50;18.13;;;17.23;;
12908;SDS011;6522;49.622;6.126;2022-08-03T15:17:37;18.40;;;17.40;;
12908;SDS011;6522;49.622;6.126;2022-08-03T15:20:23;18.40;;;17.50;;
12908;SDS011;6522;49.622;6.126;2022-08-03T15:23:10;18.60;;;17.70;;
12908;SDS011;6522;49.622;6.126;2022-08-03T15:25:57;19.00;;;18.00;;
12908;SDS011;6522;49.622;6.126;2022-08-03T15:28:44;18.73;;;17.83;;
12908;SDS011;6522;49.622;6.126;2022-08-03T15:31:30;19.30;;;18.30;;
12908;SDS011;6522;49.622;6.126;2022-08-03T15:34:17;18.67;;;17.67;;
12908;SDS011;6522;49.622;6.126;2022-08-03T15:37:04;16.20;;;15.40;;
12908;SDS011;6522;49.622;6.126;2022-08-03T15:39:51;18.70;;;17.77;;
12908;SDS011;6522;49.622;6.126;2022-08-03T15:42:38;19.50;;;18.57;;
12908;SDS011;6522;49.622;6.126;2022-08-03T15:45:25;18.90;;;17.90;;
12908;SDS011;6522;49.622;6.126;2022-08-03T15:48:12;18.73;;;17.77;;
12908;SDS011;6522;49.622;6.126;2022-08-03T15:50:58;16.90;;;16.00;;
12908;SDS011;6522;49.622;6.126;2022-08-03T15:53:45;18.17;;;17.27;;
12908;SDS011;6522;49.622;6.126;2022-08-03T15:56:32;19.13;;;17.80;;
12908;SDS011;6522;49.622;6.126;2022-08-03T15:59:19;18.87;;;17.60;;
12908;SDS011;6522;49.622;6.126;2022-08-03T16:02:05;18.60;;;17.70;;
12908;SDS011;6522;49.622;6.126;2022-08-03T16:04:52;16.33;;;15.40;;
12908;SDS011;6522;49.622;6.126;2022-08-03T16:07:39;18.90;;;17.90;;
12908;SDS011;6522;49.622;6.126;2022-08-03T16:10:29;19.70;;;18.40;;
12908;SDS011;6522;49.622;6.126;2022-08-03T16:13:16;18.70;;;17.70;;
12908;SDS011;6522;49.622;6.126;2022-08-03T16:16:02;19.10;;;18.20;;
12908;SDS011;6522;49.622;6.126;2022-08-03T16:18:50;17.10;;;16.20;;
12908;SDS011;6522;49.622;6.126;2022-08-03T16:21:36;16.95;;;16.15;;
12908;SDS011;6522;49.622;6.126;2022-08-03T16:24:23;19.10;;;18.20;;
12908;SDS011;6522;49.622;6.126;2022-08-03T16:27:10;19.20;;;18.30;;
12908;SDS011;6522;49.622;6.126;2022-08-03T16:29:57;18.93;;;18.03;;
12908;SDS011;6522;49.622;6.126;2022-08-03T16:32:44;19.20;;;18.30;;
12908;SDS011;6522;49.622;6.126;2022-08-03T16:35:30;19.10;;;18.10;;
12908;SDS011;6522;49.622;6.126;2022-08-03T16:38:17;19.27;;;18.10;;
12908;SDS011;6522;49.622;6.126;2022-08-03T16:41:04;16.92;;;15.82;;
12908;SDS011;6522;49.622;6.126;2022-08-03T16:43:50;18.70;;;17.87;;
12908;SDS011;6522;49.622;6.126;2022-08-03T16:46:37;20.40;;;19.40;;
12908;SDS011;6522;49.622;6.126;2022-08-03T16:49:24;19.40;;;18.37;;
12908;SDS011;6522;49.622;6.126;2022-08-03T16:52:11;20.63;;;19.43;;
12908;SDS011;6522;49.622;6.126;2022-08-03T16:54:57;19.50;;;18.60;;
12908;SDS011;6522;49.622;6.126;2022-08-03T16:57:44;19.20;;;18.20;;
12908;SDS011;6522;49.622;6.126;2022-08-03T17:00:31;18.77;;;17.97;;
12908;SDS011;6522;49.622;6.126;2022-08-03T17:03:18;19.43;;;18.43;;